createdAt,value
2023-04-29T00:01:33.670Z,10.23
2023-04-29T00:08:35.373Z,8.80
2023-04-29T00:15:37.452Z,9.45
2023-04-29T00:22:38.988Z,10.10
2023-04-29T00:29:40.619Z,12.00
2023-04-29T00:36:42.190Z,10.57
2023-04-29T00:43:43.753Z,10.27
2023-04-29T00:50:45.329Z,10.82
2023-04-29T00:57:52.305Z,9.48
2023-04-29T01:04:54.009Z,10.48
2023-04-29T01:12:19.259Z,9.63
2023-04-29T01:19:20.688Z,12.73
2023-04-29T01:26:23.496Z,10.63
2023-04-29T01:33:44.725Z,11.63
2023-04-29T01:41:15.105Z,17.40
2023-04-29T01:48:17.927Z,13.23
2023-04-29T01:55:19.994Z,12.38
2023-04-29T02:02:41.674Z,13.73
2023-04-29T02:09:51.646Z,10.23
2023-04-29T02:16:53.553Z,12.20
2023-04-29T02:23:58.012Z,12.93
2023-04-29T02:30:59.965Z,11.70
2023-04-29T02:38:01.713Z,12.85
2023-04-29T02:45:03.892Z,12.43
2023-04-29T02:52:05.788Z,13.98
2023-04-29T02:59:09.602Z,16.48
2023-04-29T03:06:11.527Z,15.32
2023-04-29T03:13:13.108Z,15.85
2023-04-29T03:20:15.428Z,15.80
2023-04-29T03:27:17.662Z,16.35
2023-04-29T03:34:19.282Z,15.68
2023-04-29T03:41:28.359Z,14.30
2023-04-29T03:48:30.417Z,17.13
2023-04-29T03:55:32.065Z,18.38
2023-04-29T04:02:35.187Z,19.65
2023-04-29T04:09:38.182Z,17.35
2023-04-29T04:16:39.942Z,22.25
2023-04-29T04:23:41.983Z,18.70
2023-04-29T04:30:46.637Z,26.65
2023-04-29T04:37:48.295Z,20.98
2023-04-29T04:44:49.903Z,21.60
2023-04-29T04:52:09.792Z,23.80
2023-04-29T04:59:11.624Z,25.05
2023-04-29T05:06:15.591Z,21.30
2023-04-29T05:13:20.541Z,23.08
2023-04-29T05:20:22.469Z,24.17
2023-04-29T05:27:24.122Z,23.92
2023-04-29T05:34:25.964Z,22.65
2023-04-29T05:41:27.866Z,23.95
2023-04-29T05:48:44.505Z,20.73
2023-04-29T05:55:48.347Z,20.10
2023-04-29T06:02:58.832Z,19.63
2023-04-29T06:10:02.506Z,21.08
2023-04-29T06:17:05.538Z,21.90
2023-04-29T06:24:07.801Z,19.48
2023-04-29T06:31:10.150Z,22.80
2023-04-29T06:38:11.862Z,21.33
2023-04-29T06:45:36.449Z,20.95
2023-04-29T06:52:42.981Z,20.98
2023-04-29T06:59:44.656Z,21.80
2023-04-29T07:06:46.999Z,20.00
2023-04-29T07:13:48.733Z,16.63
2023-04-29T07:20:52.665Z,17.13
2023-04-29T07:27:54.511Z,17.40
2023-04-29T07:34:56.228Z,17.95
2023-04-29T07:41:58.030Z,16.80
2023-04-29T07:48:59.591Z,16.67
2023-04-29T07:56:05.919Z,13.20
2023-04-29T08:03:07.744Z,15.00
2023-04-29T08:10:09.766Z,14.20
2023-04-29T08:17:12.293Z,12.15
2023-04-29T08:24:13.872Z,15.68
2023-04-29T08:31:18.996Z,12.68
2023-04-29T08:38:20.599Z,12.73
2023-04-29T08:45:22.131Z,10.05
2023-04-29T08:52:24.310Z,13.43
2023-04-29T08:59:25.956Z,13.88
2023-04-29T09:06:27.810Z,14.15
2023-04-29T09:13:30.630Z,17.85
2023-04-29T09:20:32.533Z,20.20
2023-04-29T09:27:34.585Z,17.30
2023-04-29T09:34:37.732Z,20.55
2023-04-29T09:41:42.372Z,21.40
2023-04-29T09:48:43.920Z,26.55
2023-04-29T09:55:54.494Z,27.95
2023-04-29T10:02:56.123Z,20.13
2023-04-29T10:09:57.833Z,32.20
2023-04-29T10:17:10.868Z,28.08
2023-04-29T10:24:13.523Z,40.35
2023-04-29T10:31:16.670Z,35.78
2023-04-29T10:38:25.064Z,38.55
2023-04-29T10:45:32.548Z,30.85
2023-04-29T10:52:51.500Z,27.20
2023-04-29T10:59:53.072Z,24.40
2023-04-29T11:06:55.801Z,32.47
2023-04-29T11:13:57.390Z,29.67
2023-04-29T11:21:07.938Z,25.83
2023-04-29T11:28:09.503Z,27.73
2023-04-29T11:35:15.256Z,19.50
2023-04-29T11:42:21.330Z,20.77
2023-04-29T11:49:29.974Z,18.13
2023-04-29T11:56:31.607Z,14.85
2023-04-29T12:03:33.830Z,15.68
2023-04-29T12:10:36.669Z,14.85
2023-04-29T12:17:38.835Z,13.32
2023-04-29T12:24:40.923Z,15.70
2023-04-29T12:31:43.471Z,14.02
2023-04-29T12:38:45.536Z,23.45
2023-04-29T12:45:47.112Z,13.13
2023-04-29T12:52:48.746Z,16.35
2023-04-29T12:59:50.405Z,13.20
2023-04-29T13:06:58.474Z,12.75
2023-04-29T13:14:00.024Z,10.60
2023-04-29T13:21:02.652Z,9.68
2023-04-29T13:28:07.542Z,12.80
2023-04-29T13:35:09.264Z,12.38
2023-04-29T13:42:11.231Z,10.90
2023-04-29T13:49:27.126Z,9.23
2023-04-29T14:03:40.302Z,10.00
2023-04-29T14:10:42.211Z,11.50
2023-04-29T14:17:43.812Z,11.82
2023-04-29T14:24:46.345Z,10.65
2023-04-29T14:31:47.984Z,10.90
2023-04-29T14:38:49.661Z,12.48
2023-04-29T14:45:51.299Z,13.18
2023-04-29T14:52:52.881Z,11.93
2023-04-29T14:59:54.417Z,10.65
2023-04-29T15:06:57.117Z,9.90
2023-04-29T15:13:58.852Z,8.77
2023-04-29T15:21:00.456Z,9.15
2023-04-29T15:28:02.336Z,14.02
2023-04-29T15:35:04.788Z,11.45
2023-04-29T15:42:06.365Z,9.63
2023-04-29T15:49:07.989Z,11.10
2023-04-29T15:56:09.872Z,12.65
2023-04-29T16:03:11.502Z,11.02
2023-04-29T16:10:13.215Z,10.02
2023-04-29T16:17:14.758Z,10.05
2023-04-29T16:24:16.389Z,9.07
2023-04-29T16:31:19.921Z,11.07
2023-04-29T16:38:21.635Z,12.10
2023-04-29T16:45:26.328Z,12.35
2023-04-29T16:52:27.997Z,10.20
2023-04-29T16:59:29.560Z,10.60
2023-04-29T17:06:32.243Z,10.38
2023-04-29T17:13:33.840Z,14.68
2023-04-29T17:20:36.244Z,9.02
2023-04-29T17:27:38.008Z,9.32
2023-04-29T17:34:39.985Z,7.53
2023-04-29T17:41:41.761Z,11.13
2023-04-29T17:48:43.382Z,11.45
2023-04-29T17:55:46.078Z,7.38
2023-04-29T18:02:47.707Z,7.95
2023-04-29T18:09:49.459Z,6.78
2023-04-29T18:16:51.593Z,8.27
2023-04-29T18:23:53.986Z,10.52
2023-04-29T18:30:56.944Z,19.90
2023-04-29T18:37:58.524Z,9.02
2023-04-29T18:45:00.103Z,8.70
2023-04-29T18:52:01.674Z,10.75
2023-04-29T18:59:03.206Z,7.13
2023-04-29T19:06:04.824Z,8.98
2023-04-29T19:13:06.900Z,10.02
2023-04-29T19:20:09.955Z,15.45
2023-04-29T19:27:12.014Z,9.85
2023-04-29T19:34:13.556Z,8.43
2023-04-29T19:41:15.339Z,11.52
2023-04-29T19:48:17.200Z,9.55
2023-04-29T19:55:18.858Z,9.68
2023-04-29T20:02:20.495Z,8.30
2023-04-29T20:09:22.302Z,8.23
2023-04-29T20:16:23.993Z,12.00
2023-04-29T20:23:25.774Z,9.35
2023-04-29T20:30:27.416Z,9.27
2023-04-29T20:37:29.010Z,10.98
2023-04-29T20:44:31.334Z,8.70
2023-04-29T20:51:32.944Z,9.73
2023-04-29T20:58:34.560Z,14.88
2023-04-29T21:05:36.256Z,10.27
2023-04-29T21:12:37.889Z,10.00
2023-04-29T21:19:39.496Z,9.20
2023-04-29T21:26:41.087Z,10.88
2023-04-29T21:33:45.695Z,10.10
2023-04-29T21:40:47.686Z,8.68
2023-04-29T21:47:49.289Z,10.32
2023-04-29T21:54:50.906Z,10.48
2023-04-29T22:02:00.146Z,9.40
2023-04-29T22:09:02.512Z,8.67
2023-04-29T22:16:05.218Z,8.48
2023-04-29T22:23:06.856Z,8.75
2023-04-29T22:30:08.916Z,9.00
2023-04-29T22:37:10.562Z,8.73
2023-04-29T22:44:12.167Z,10.35
2023-04-29T22:51:13.798Z,6.35
2023-04-29T22:58:15.612Z,5.45
2023-04-29T23:05:17.438Z,6.57
2023-04-29T23:12:19.699Z,9.48
2023-04-29T23:19:21.348Z,10.68
2023-04-29T23:26:23.353Z,8.10
2023-04-29T23:33:24.991Z,8.07
2023-04-29T23:40:26.570Z,10.18
2023-04-29T23:47:28.185Z,4.72
2023-04-29T23:54:29.737Z,6.50
